Time;durP1;ratioP1;P1;durP2;ratioP2;P2;SDS_P1;SDS_P2;PMS_P1;PMS_P2;Temp;Humidity;BMP_temperature;BMP_pressure;BME280_temperature;BME280_humidity;BME280_pressure;Samples;Min_cycle;Max_cycle;Signal;HPM_P1;HPM_P2
2022/12/20 00:01:22;;;;;;;6.45;5.05;;;2.70;99.90;;;;;;4970837;28;20205;-66
2022/12/20 00:03:56;;;;;;;6.50;5.90;;;2.70;99.90;;;;;;4971348;28;20224;-67
2022/12/20 00:06:24;;;;;;;5.88;4.90;;;2.70;99.90;;;;;;4969345;28;20204;-67
2022/12/20 00:08:55;;;;;;;8.25;5.90;;;2.70;99.90;;;;;;4971528;28;20224;-68
2022/12/20 00:11:24;;;;;;;10.25;6.35;;;2.70;99.90;;;;;;4970938;28;20215;-67
2022/12/20 00:13:51;;;;;;;9.40;5.85;;;2.70;99.90;;;;;;4971514;28;20691;-67
2022/12/20 00:16:21;;;;;;;8.65;6.20;;;2.70;99.90;;;;;;4971409;28;20208;-67
2022/12/20 00:18:50;;;;;;;6.32;5.15;;;2.70;99.90;;;;;;4971242;28;20225;-67
2022/12/20 00:21:17;;;;;;;7.30;5.18;;;2.70;99.90;;;;;;4966800;28;20231;-67
2022/12/20 00:23:44;;;;;;;8.60;5.75;;;2.70;99.90;;;;;;4970796;28;20227;-67
2022/12/20 00:26:13;;;;;;;10.05;6.15;;;2.70;99.90;;;;;;4969967;28;20208;-67
2022/12/20 00:28:42;;;;;;;10.30;6.70;;;2.70;99.90;;;;;;4970937;28;20223;-67
2022/12/20 00:31:11;;;;;;;11.90;6.45;;;2.60;99.90;;;;;;4970708;28;20228;-67
2022/12/20 00:33:39;;;;;;;7.00;5.63;;;2.60;99.90;;;;;;4970939;28;20201;-67
2022/12/20 00:36:07;;;;;;;9.10;6.60;;;2.60;99.90;;;;;;4970900;28;20605;-67
2022/12/20 00:38:35;;;;;;;13.25;5.68;;;2.60;99.90;;;;;;4971053;28;20228;-67
2022/12/20 00:41:03;;;;;;;6.78;5.68;;;2.60;99.90;;;;;;4971967;28;20208;-67
2022/12/20 00:43:30;;;;;;;7.78;5.90;;;2.60;99.90;;;;;;4974323;28;20723;-67
2022/12/20 00:45:59;;;;;;;11.27;6.40;;;2.60;99.90;;;;;;4974429;28;20299;-67
2022/12/20 00:48:27;;;;;;;8.02;5.60;;;2.60;99.90;;;;;;4974511;28;20231;-67
2022/12/20 00:50:58;;;;;;;6.82;5.25;;;2.50;99.90;;;;;;4973789;28;20208;-67
2022/12/20 00:53:25;;;;;;;7.72;5.95;;;2.60;99.90;;;;;;4974539;28;20200;-67
2022/12/20 00:55:51;;;;;;;9.75;7.38;;;2.60;99.90;;;;;;4974397;28;20692;-67
2022/12/20 00:58:18;;;;;;;10.20;6.30;;;2.60;99.90;;;;;;4974422;28;20727;-67
2022/12/20 01:00:45;;;;;;;12.63;7.32;;;2.60;99.90;;;;;;4973758;28;20204;-67
2022/12/20 01:03:13;;;;;;;13.40;7.43;;;2.60;99.90;;;;;;4974195;28;20219;-67
2022/12/20 01:05:40;;;;;;;9.98;6.80;;;2.60;99.90;;;;;;4974428;28;20204;-67
2022/12/20 01:08:07;;;;;;;8.35;6.07;;;2.60;99.90;;;;;;4973802;28;20228;-67
2022/12/20 01:10:34;;;;;;;10.70;6.93;;;2.60;99.90;;;;;;4973654;28;20582;-67
2022/12/20 01:13:00;;;;;;;12.88;6.88;;;2.60;99.90;;;;;;4973866;28;20219;-68
2022/12/20 01:15:27;;;;;;;10.35;7.90;;;2.60;99.90;;;;;;4974227;28;20561;-67
2022/12/20 01:17:54;;;;;;;11.57;7.40;;;2.60;99.90;;;;;;4974098;28;20219;-67
2022/12/20 01:20:22;;;;;;;10.73;7.80;;;2.60;99.90;;;;;;4973385;28;20207;-67
2022/12/20 01:22:49;;;;;;;14.93;7.85;;;2.60;99.90;;;;;;4974037;28;20214;-67
2022/12/20 01:25:16;;;;;;;11.32;9.98;;;2.60;99.90;;;;;;4973558;28;20224;-67
2022/12/20 01:27:43;;;;;;;14.68;9.30;;;2.60;99.90;;;;;;4973845;28;20219;-67
2022/12/20 01:30:11;;;;;;;13.50;9.13;;;2.60;99.90;;;;;;4973274;28;20223;-67
2022/12/20 01:32:38;;;;;;;16.40;9.35;;;2.60;99.90;;;;;;4972938;28;20200;-67
2022/12/20 01:35:05;;;;;;;14.35;10.32;;;2.60;99.90;;;;;;4973359;28;20199;-67
2022/12/20 01:37:34;;;;;;;9.77;8.63;;;2.50;99.90;;;;;;4973682;28;20228;-67
2022/12/20 01:40:01;;;;;;;15.07;8.70;;;2.40;99.90;;;;;;4973297;28;20263;-67
2022/12/20 01:42:27;;;;;;;14.45;9.38;;;2.30;99.90;;;;;;4973326;28;20216;-67
2022/12/20 01:45:00;;;;;;;13.05;9.60;;;2.30;99.90;;;;;;4973558;28;20224;-67
2022/12/20 01:47:28;;;;;;;12.70;8.50;;;2.30;99.90;;;;;;4973502;28;20315;-67
2022/12/20 01:49:57;;;;;;;13.52;8.43;;;2.40;99.90;;;;;;4973412;28;20207;-67
2022/12/20 01:52:30;;;;;;;17.55;11.32;;;2.30;99.90;;;;;;4973065;28;20577;-67
2022/12/20 01:55:05;;;;;;;15.45;10.15;;;2.30;99.90;;;;;;4973173;28;20199;-67
2022/12/20 01:57:36;;;;;;;16.73;11.10;;;2.30;99.90;;;;;;4973417;28;20235;-67
2022/12/20 02:00:03;;;;;;;19.95;10.38;;;2.20;99.90;;;;;;4972916;28;20204;-67
2022/12/20 02:02:31;;;;;;;17.85;10.30;;;2.20;99.90;;;;;;4972842;28;20705;-67
2022/12/20 02:04:58;;;;;;;15.30;11.35;;;2.20;99.90;;;;;;4971990;28;20680;-67
2022/12/20 02:07:29;;;;;;;14.25;9.98;;;2.30;99.90;;;;;;4973065;28;20224;-67
2022/12/20 02:09:56;;;;;;;16.60;12.30;;;2.20;99.90;;;;;;4973342;28;20196;-66
2022/12/20 02:12:26;;;;;;;16.40;11.55;;;2.20;99.90;;;;;;4972555;28;20204;-67
2022/12/20 02:15:13;;;;;;;15.85;11.25;;;2.20;99.90;;;;;;4973263;28;20204;-67
2022/12/20 02:17:47;;;;;;;16.25;11.55;;;2.30;99.90;;;;;;4973067;28;20235;-67
2022/12/20 02:20:54;;;;;;;18.85;11.80;;;2.30;99.90;;;;;;4972650;28;20215;-67
2022/12/20 02:23:44;;;;;;;16.00;10.00;;;2.20;99.90;;;;;;4987169;28;20203;-67
2022/12/20 02:26:32;;;;;;;18.83;9.88;;;2.20;99.90;;;;;;4992196;28;20219;-67
2022/12/20 02:29:18;;;;;;;17.88;10.70;;;2.20;99.90;;;;;;4992126;28;20226;-67
2022/12/20 02:31:54;;;;;;;15.20;9.80;;;2.20;99.90;;;;;;4991978;28;20207;-67
2022/12/20 02:34:23;;;;;;;16.90;11.07;;;2.20;99.90;;;;;;4971860;28;20203;-67
2022/12/20 02:36:50;;;;;;;12.30;10.55;;;2.20;99.90;;;;;;4972704;28;20200;-67
2022/12/20 02:39:17;;;;;;;19.23;11.30;;;2.20;99.90;;;;;;4971528;28;20212;-67
2022/12/20 02:41:49;;;;;;;14.98;9.57;;;2.20;99.90;;;;;;4971997;28;20679;-67
2022/12/20 02:47:08;;;;;;;15.00;10.65;;;2.30;99.90;;;;;;4972447;28;20331;-66
2022/12/20 02:49:40;;;;;;;20.20;10.52;;;2.20;99.90;;;;;;4972451;28;20215;-66
2022/12/20 02:52:09;;;;;;;16.92;10.57;;;2.20;99.90;;;;;;4972061;28;20672;-66
2022/12/20 02:54:37;;;;;;;19.52;11.15;;;2.10;99.90;;;;;;4972648;28;20207;-67
2022/12/20 02:57:10;;;;;;;16.65;11.60;;;2.10;99.90;;;;;;4972300;28;20224;-66
2022/12/20 02:59:42;;;;;;;15.85;10.00;;;2.00;99.90;;;;;;4972378;28;20218;-65
2022/12/20 03:02:11;;;;;;;14.48;9.68;;;2.00;99.90;;;;;;4970613;28;20208;-66
2022/12/20 03:04:40;;;;;;;12.73;8.75;;;2.10;99.90;;;;;;4972035;28;20227;-66
2022/12/20 03:07:10;;;;;;;17.08;8.73;;;2.10;99.90;;;;;;4971904;28;20224;-66
2022/12/20 03:09:40;;;;;;;10.23;7.72;;;2.10;99.90;;;;;;4972235;28;20675;-66
2022/12/20 03:12:08;;;;;;;8.57;6.50;;;2.20;99.90;;;;;;4971373;28;20302;-66
2022/12/20 03:14:35;;;;;;;7.50;6.28;;;2.30;99.90;;;;;;4972163;28;20199;-66
2022/12/20 03:17:02;;;;;;;12.15;7.43;;;2.40;99.90;;;;;;4972150;28;20212;-66
2022/12/20 03:19:30;;;;;;;14.45;6.78;;;2.50;99.90;;;;;;4972059;28;20203;-66
2022/12/20 03:21:57;;;;;;;8.57;5.35;;;2.60;99.90;;;;;;4971796;28;20217;-66
2022/12/20 03:24:24;;;;;;;8.18;6.35;;;2.60;99.90;;;;;;4971721;28;20585;-66
2022/12/20 03:26:51;;;;;;;8.57;5.70;;;2.70;99.90;;;;;;4972133;28;20208;-66
2022/12/20 03:29:18;;;;;;;6.10;4.40;;;2.70;99.90;;;;;;4971738;28;20199;-66
2022/12/20 03:31:45;;;;;;;4.82;4.35;;;2.80;99.90;;;;;;4971528;28;20205;-66
2022/12/20 03:34:11;;;;;;;7.07;4.60;;;2.90;99.90;;;;;;4971854;28;20211;-66
2022/12/20 03:36:39;;;;;;;9.57;4.43;;;2.90;99.90;;;;;;4972051;28;20216;-67
2022/12/20 03:39:06;;;;;;;7.95;4.88;;;3.00;99.90;;;;;;4971813;28;20246;-66
2022/12/20 03:41:33;;;;;;;6.45;4.38;;;3.00;99.90;;;;;;4971410;28;20203;-66
2022/12/20 03:44:00;;;;;;;5.75;3.45;;;3.10;99.90;;;;;;4972528;28;20676;-66
2022/12/20 03:46:26;;;;;;;4.85;3.78;;;3.20;99.90;;;;;;4972425;28;20453;-66
2022/12/20 03:48:53;;;;;;;4.60;3.50;;;3.40;99.90;;;;;;4972768;28;20232;-66
2022/12/20 03:51:20;;;;;;;4.97;3.30;;;3.60;99.90;;;;;;4972648;28;20563;-66
2022/12/20 03:53:48;;;;;;;4.40;3.90;;;3.80;99.90;;;;;;4972141;28;20212;-66
2022/12/20 03:56:15;;;;;;;4.25;3.40;;;3.90;99.90;;;;;;4971543;28;20192;-66
2022/12/20 03:58:41;;;;;;;4.75;3.22;;;3.90;99.90;;;;;;4971210;28;20239;-66
2022/12/20 04:01:22;;;;;;;4.90;3.95;;;3.90;99.90;;;;;;4970873;28;20217;-66
2022/12/20 04:03:49;;;;;;;5.50;4.25;;;4.00;99.90;;;;;;4971441;28;20211;-67
2022/12/20 04:06:16;;;;;;;5.07;3.28;;;4.00;99.90;;;;;;4971422;28;20224;-66
2022/12/20 04:08:44;;;;;;;3.40;3.10;;;3.90;99.90;;;;;;4971782;28;20219;-67
2022/12/20 04:11:18;;;;;;;5.15;3.00;;;4.00;99.90;;;;;;4970979;28;20207;-66
2022/12/20 04:13:46;;;;;;;5.47;3.50;;;3.90;99.90;;;;;;4971868;28;20203;-66
2022/12/20 04:16:13;;;;;;;4.55;3.80;;;3.80;99.90;;;;;;4973542;28;20204;-67
2022/12/20 04:18:40;;;;;;;4.35;3.60;;;3.80;99.90;;;;;;4975592;28;20224;-68
2022/12/20 04:21:07;;;;;;;3.47;3.00;;;3.80;99.90;;;;;;4974931;28;20207;-68
2022/12/20 04:23:35;;;;;;;3.85;3.22;;;3.80;99.90;;;;;;4975696;28;20287;-68
2022/12/20 04:26:02;;;;;;;5.45;3.67;;;3.80;99.90;;;;;;4974892;28;20711;-68
2022/12/20 04:28:31;;;;;;;4.68;3.65;;;3.80;99.90;;;;;;4974957;28;20228;-68
2022/12/20 04:30:58;;;;;;;5.03;3.80;;;3.70;99.90;;;;;;4974461;28;20690;-67
2022/12/20 04:33:26;;;;;;;3.22;2.85;;;3.70;99.90;;;;;;4974692;28;20216;-67
2022/12/20 04:35:53;;;;;;;5.60;3.30;;;3.70;99.90;;;;;;4974876;28;20687;-67
2022/12/20 04:38:21;;;;;;;4.43;3.45;;;3.70;99.90;;;;;;4965756;28;20220;-67
2022/12/20 04:40:49;;;;;;;4.72;3.50;;;3.70;99.90;;;;;;4963656;28;20220;-68
2022/12/20 04:43:16;;;;;;;4.50;3.20;;;3.70;99.90;;;;;;4964999;28;20204;-66
2022/12/20 04:45:44;;;;;;;6.22;3.42;;;3.70;99.90;;;;;;4962092;28;20738;-67
2022/12/20 04:48:11;;;;;;;4.00;3.50;;;3.60;99.90;;;;;;4963010;28;20233;-68
2022/12/20 04:50:38;;;;;;;2.67;2.47;;;3.60;99.90;;;;;;4964363;28;20203;-67
2022/12/20 04:55:50;;;;;;;4.43;3.08;;;3.80;99.90;;;;;;4965814;28;20200;-67
2022/12/20 04:58:17;;;;;;;2.88;2.45;;;3.90;99.90;;;;;;4974091;28;20227;-67
2022/12/20 05:00:45;;;;;;;3.53;2.75;;;4.10;99.90;;;;;;4973642;28;20239;-68
2022/12/20 05:03:12;;;;;;;6.00;3.40;;;4.30;99.90;;;;;;4967963;28;20288;-67
2022/12/20 05:05:39;;;;;;;2.92;2.50;;;4.50;99.90;;;;;;4964080;28;20219;-67
2022/12/20 05:08:05;;;;;;;3.47;3.10;;;4.60;99.90;;;;;;4965684;28;20224;-67
2022/12/20 05:10:32;;;;;;;3.95;2.95;;;4.70;99.90;;;;;;4956685;28;20201;-67
2022/12/20 05:12:59;;;;;;;4.43;3.10;;;4.80;99.90;;;;;;4964731;28;20572;-66
2022/12/20 05:15:25;;;;;;;4.85;3.13;;;5.00;99.90;;;;;;4969530;28;20193;-67
2022/12/20 05:17:58;;;;;;;5.63;3.13;;;5.00;99.90;;;;;;4968514;28;20224;-67
2022/12/20 05:20:25;;;;;;;4.10;2.95;;;5.00;99.90;;;;;;4963734;28;20283;-66
2022/12/20 05:28:23;;;;;;;3.80;2.83;;;5.00;99.90;;;;;;4960577;28;20740;-66
2022/12/20 05:30:49;;;;;;;2.55;2.35;;;5.10;99.90;;;;;;4968823;28;20724;-66
2022/12/20 05:33:18;;;;;;;4.00;2.95;;;5.10;99.90;;;;;;4973950;28;20668;-66
2022/12/20 05:35:45;;;;;;;4.00;3.60;;;5.20;99.90;;;;;;4973280;28;20208;-66
2022/12/20 05:38:11;;;;;;;4.88;2.88;;;5.10;99.90;;;;;;4973493;28;20251;-66
2022/12/20 05:40:39;;;;;;;3.22;2.92;;;5.10;99.90;;;;;;4972798;28;20210;-66
2022/12/20 05:43:06;;;;;;;4.90;2.58;;;5.10;99.90;;;;;;4971886;28;20629;-66
2022/12/20 05:45:34;;;;;;;4.00;2.50;;;5.10;99.90;;;;;;4973420;28;20231;-66
2022/12/20 05:48:01;;;;;;;3.35;2.20;;;5.10;99.90;;;;;;4973004;28;20244;-66
2022/12/20 05:50:29;;;;;;;4.22;3.28;;;5.10;99.90;;;;;;4973086;28;20209;-66
2022/12/20 05:52:56;;;;;;;4.13;3.15;;;5.10;99.90;;;;;;4983181;28;20207;-66
2022/12/20 05:55:22;;;;;;;3.50;2.90;;;5.00;99.90;;;;;;4992634;28;20203;-66
2022/12/20 05:57:49;;;;;;;3.70;3.30;;;5.10;99.90;;;;;;4992204;28;20718;-66
2022/12/20 06:00:16;;;;;;;4.32;3.15;;;5.10;99.90;;;;;;4992052;28;20215;-66
2022/12/20 06:02:43;;;;;;;4.05;3.33;;;5.10;99.90;;;;;;4992314;28;20200;-66
2022/12/20 06:05:10;;;;;;;2.80;2.60;;;5.10;99.90;;;;;;4992332;28;20223;-66
2022/12/20 06:07:38;;;;;;;4.82;3.53;;;5.10;99.90;;;;;;4992655;28;20634;-66
2022/12/20 06:10:06;;;;;;;2.47;2.28;;;5.10;99.90;;;;;;4991930;28;20208;-66
2022/12/20 06:12:33;;;;;;;4.88;2.40;;;5.00;99.90;;;;;;4992140;28;20581;-66
2022/12/20 06:15:00;;;;;;;3.58;3.15;;;5.00;99.90;;;;;;4991957;28;20633;-66
2022/12/20 06:17:27;;;;;;;4.30;3.05;;;5.10;99.90;;;;;;4992558;28;20219;-66
2022/12/20 06:19:54;;;;;;;5.10;3.60;;;5.10;99.90;;;;;;4991872;28;20211;-66
2022/12/20 06:22:20;;;;;;;3.60;3.30;;;5.20;99.90;;;;;;4991601;28;20202;-66
2022/12/20 06:24:48;;;;;;;3.40;2.70;;;5.30;99.90;;;;;;4991938;28;20218;-66
2022/12/20 06:27:15;;;;;;;4.07;3.20;;;5.40;99.90;;;;;;4991730;28;20239;-66
2022/12/20 06:29:48;;;;;;;4.63;3.20;;;5.50;99.90;;;;;;4991760;28;20262;-67
2022/12/20 06:32:14;;;;;;;4.13;3.05;;;5.50;99.90;;;;;;4991288;28;20586;-67
2022/12/20 06:34:41;;;;;;;4.63;3.13;;;5.50;99.90;;;;;;4991689;28;20207;-67
2022/12/20 06:37:08;;;;;;;5.10;3.08;;;5.50;99.90;;;;;;5047423;23;20223;-90
2022/12/20 06:39:35;;;;;;;3.63;3.15;;;5.60;99.90;;;;;;5021687;28;20259;-92
2022/12/20 06:42:04;;;;;;;3.25;2.90;;;5.60;99.90;;;;;;5018035;28;20258;-91
2022/12/20 06:44:31;;;;;;;5.35;3.30;;;5.60;99.90;;;;;;5018672;28;20234;-91
2022/12/20 06:46:58;;;;;;;4.13;3.50;;;5.60;99.90;;;;;;5018605;28;20214;-90
2022/12/20 06:49:25;;;;;;;3.88;2.83;;;5.70;99.90;;;;;;5017972;28;20208;-91
2022/12/20 06:51:51;;;;;;;4.65;2.63;;;5.70;99.90;;;;;;5017192;28;20188;-92
2022/12/20 06:54:19;;;;;;;4.40;3.10;;;5.80;99.90;;;;;;5010224;28;20289;-95
2022/12/20 06:56:46;;;;;;;2.97;2.58;;;5.80;99.90;;;;;;5006247;28;20219;-93
2022/12/20 06:59:15;;;;;;;2.47;2.28;;;5.80;99.90;;;;;;5010654;28;20191;-92
2022/12/20 07:01:44;;;;;;;3.90;2.60;;;5.80;99.90;;;;;;5017925;28;20239;-93
2022/12/20 07:04:15;;;;;;;2.83;2.60;;;5.80;99.90;;;;;;5018182;28;20190;-93
2022/12/20 07:06:42;;;;;;;3.10;2.70;;;5.80;99.90;;;;;;5017844;28;20283;-93
2022/12/20 07:09:12;;;;;;;3.45;3.15;;;5.90;99.90;;;;;;5018110;28;20179;-92
2022/12/20 07:11:39;;;;;;;2.55;2.13;;;5.90;99.90;;;;;;5017715;28;20184;-91
2022/12/20 07:14:06;;;;;;;3.60;2.70;;;5.90;99.90;;;;;;5019404;23;20318;-65
2022/12/20 07:16:34;;;;;;;3.88;2.47;;;5.90;99.90;;;;;;4991009;28;20221;-65
2022/12/20 07:19:01;;;;;;;2.28;1.95;;;6.00;99.90;;;;;;4973110;28;20251;-67
2022/12/20 07:21:28;;;;;;;3.28;2.30;;;6.10;99.90;;;;;;4971441;28;20203;-66
2022/12/20 07:23:55;;;;;;;3.10;2.10;;;6.20;99.90;;;;;;4971712;28;20306;-66
2022/12/20 07:26:22;;;;;;;3.85;2.45;;;6.40;99.90;;;;;;4971801;28;20223;-66
2022/12/20 07:28:49;;;;;;;3.17;2.40;;;6.50;99.90;;;;;;4971797;28;20231;-65
2022/12/20 07:31:16;;;;;;;2.95;2.28;;;6.60;99.90;;;;;;4983496;28;20207;-67
2022/12/20 07:33:44;;;;;;;3.22;2.22;;;6.70;99.90;;;;;;4972266;28;20204;-66
2022/12/20 07:36:12;;;;;;;2.83;2.45;;;6.80;99.90;;;;;;4972014;28;20214;-65
2022/12/20 07:38:39;;;;;;;2.63;2.42;;;6.80;99.90;;;;;;4974357;28;20246;-69
2022/12/20 07:41:08;;;;;;;3.25;2.95;;;6.90;99.90;;;;;;4972338;28;20208;-66
2022/12/20 07:43:35;;;;;;;2.85;2.25;;;6.90;99.90;;;;;;4971635;28;20200;-68
2022/12/20 07:46:02;;;;;;;3.97;2.97;;;7.00;99.90;;;;;;4971648;28;20228;-67
2022/12/20 07:48:30;;;;;;;3.80;2.78;;;7.10;99.90;;;;;;4983021;28;20224;-66
2022/12/20 07:51:01;;;;;;;2.83;2.58;;;7.10;99.90;;;;;;4985911;28;20211;-67
2022/12/20 07:53:31;;;;;;;2.17;1.90;;;7.10;99.90;;;;;;4974768;28;20286;-66
2022/12/20 07:56:00;;;;;;;3.70;2.95;;;7.10;99.90;;;;;;4974796;28;20200;-66
2022/12/20 07:58:29;;;;;;;3.25;2.47;;;7.10;99.90;;;;;;4974961;28;20235;-66
2022/12/20 08:00:58;;;;;;;4.75;2.40;;;7.10;99.90;;;;;;4974472;28;20300;-66
2022/12/20 08:03:27;;;;;;;2.72;2.20;;;7.10;99.90;;;;;;4974091;28;20211;-66
2022/12/20 08:06:02;;;;;;;2.90;2.28;;;7.20;99.90;;;;;;4964277;28;20662;-68
2022/12/20 08:08:32;;;;;;;3.45;2.90;;;7.20;99.90;;;;;;4970499;28;20650;-67
2022/12/20 08:11:00;;;;;;;3.70;2.42;;;7.20;99.90;;;;;;4973735;28;20244;-67
2022/12/20 08:13:27;;;;;;;2.50;2.20;;;7.30;99.90;;;;;;4974735;28;20214;-67
2022/12/20 08:15:54;;;;;;;2.58;1.98;;;7.20;99.90;;;;;;4975089;28;20231;-66
2022/12/20 08:18:21;;;;;;;2.80;2.10;;;7.20;99.90;;;;;;4975119;28;20275;-66
2022/12/20 08:20:48;;;;;;;4.28;2.40;;;7.30;99.90;;;;;;4974523;28;20203;-66
2022/12/20 08:23:16;;;;;;;2.80;2.60;;;7.30;99.90;;;;;;4975120;28;20214;-66
2022/12/20 08:25:44;;;;;;;3.53;2.47;;;7.30;99.90;;;;;;4974002;28;20206;-66
2022/12/20 08:28:11;;;;;;;2.05;1.83;;;7.30;99.90;;;;;;4974626;28;20232;-66
2022/12/20 08:30:39;;;;;;;3.03;2.50;;;7.30;99.90;;;;;;4974195;28;20204;-66
2022/12/20 08:33:06;;;;;;;3.05;2.35;;;7.40;99.90;;;;;;4974914;28;20228;-66
2022/12/20 08:35:34;;;;;;;2.88;2.58;;;7.40;99.90;;;;;;4974396;28;20208;-66
2022/12/20 08:38:01;;;;;;;3.95;1.92;;;7.40;99.90;;;;;;4974571;28;20239;-66
2022/12/20 08:40:29;;;;;;;3.60;2.20;;;7.40;99.90;;;;;;4973993;28;20292;-67
2022/12/20 08:42:56;;;;;;;3.20;2.35;;;7.50;99.90;;;;;;4974258;28;20205;-66
2022/12/20 08:45:23;;;;;;;4.20;2.75;;;7.50;99.90;;;;;;4974754;28;20208;-67
2022/12/20 08:47:50;;;;;;;3.80;2.10;;;7.50;99.90;;;;;;4973959;28;20235;-66
2022/12/20 08:50:18;;;;;;;3.28;2.60;;;7.50;99.90;;;;;;4974187;28;20232;-67
2022/12/20 08:52:45;;;;;;;3.67;2.40;;;7.50;99.90;;;;;;4974189;28;20208;-67
2022/12/20 08:55:12;;;;;;;3.47;2.55;;;7.50;99.90;;;;;;4974425;28;20666;-66
2022/12/20 08:57:41;;;;;;;4.00;2.58;;;7.50;99.90;;;;;;4974363;28;20224;-66
2022/12/20 09:00:10;;;;;;;2.30;2.10;;;7.50;99.90;;;;;;4984384;28;20212;-65
2022/12/20 09:02:39;;;;;;;3.42;2.70;;;7.40;99.90;;;;;;4983287;28;20235;-65
2022/12/20 09:05:07;;;;;;;5.85;2.60;;;7.40;99.90;;;;;;4992492;28;20233;-65
2022/12/20 09:07:35;;;;;;;3.88;2.90;;;7.40;99.90;;;;;;4993010;28;20227;-67
2022/12/20 09:10:02;;;;;;;2.28;2.08;;;7.40;99.90;;;;;;4985768;28;20215;-66
2022/12/20 09:12:29;;;;;;;2.60;2.17;;;7.50;99.90;;;;;;4972635;28;20709;-68
2022/12/20 09:14:57;;;;;;;2.25;2.05;;;7.50;99.90;;;;;;4979629;28;20706;-67
2022/12/20 09:17:24;;;;;;;2.40;2.17;;;7.50;99.90;;;;;;4992364;28;20219;-67
2022/12/20 09:19:50;;;;;;;2.67;2.25;;;7.50;99.90;;;;;;4991842;28;20211;-66
2022/12/20 09:22:17;;;;;;;3.17;2.45;;;7.50;99.90;;;;;;4992042;28;20218;-66
2022/12/20 09:24:44;;;;;;;2.00;1.80;;;7.50;99.90;;;;;;4965386;28;20212;-67
2022/12/20 09:27:11;;;;;;;3.58;2.53;;;7.40;99.90;;;;;;4952756;28;20231;-66
2022/12/20 09:29:37;;;;;;;4.28;2.60;;;7.40;99.90;;;;;;4953103;28;20588;-66
2022/12/20 09:32:06;;;;;;;3.28;2.28;;;7.30;99.90;;;;;;4952580;28;20212;-66
2022/12/20 09:34:33;;;;;;;3.53;2.10;;;7.30;99.90;;;;;;4951235;28;20212;-67
2022/12/20 09:36:59;;;;;;;2.50;2.25;;;7.30;99.90;;;;;;4952744;29;20207;-66
2022/12/20 09:39:26;;;;;;;4.95;2.60;;;7.40;99.90;;;;;;4973458;28;20211;-66
2022/12/20 09:41:53;;;;;;;2.95;2.15;;;7.40;99.90;;;;;;4972619;28;20231;-66
2022/12/20 09:44:25;;;;;;;2.42;1.88;;;7.40;99.90;;;;;;4967582;28;20204;-67
2022/12/20 09:46:56;;;;;;;3.35;2.47;;;7.40;99.90;;;;;;4961662;28;20608;-66
2022/12/20 09:49:28;;;;;;;3.33;2.60;;;7.40;99.90;;;;;;4991800;28;20216;-66
2022/12/20 09:52:17;;;;;;;3.17;2.65;;;7.50;99.90;;;;;;4978949;28;20200;-65
2022/12/20 09:54:52;;;;;;;3.40;2.30;;;7.60;99.90;;;;;;4975033;28;20203;-66
2022/12/20 09:57:29;;;;;;;2.90;2.17;;;7.70;99.90;;;;;;4992028;28;20241;-66
2022/12/20 09:59:57;;;;;;;3.47;2.47;;;7.80;99.90;;;;;;4991597;28;20206;-66
2022/12/20 10:02:25;;;;;;;3.90;2.40;;;8.20;99.90;;;;;;4991001;28;20235;-66
2022/12/20 10:04:54;;;;;;;2.88;2.05;;;8.90;99.90;;;;;;4991869;28;20211;-65
2022/12/20 10:07:33;;;;;;;2.85;2.33;;;9.30;99.90;;;;;;4991353;28;20259;-66
2022/12/20 10:10:19;;;;;;;3.35;2.53;;;9.10;99.90;;;;;;4991936;28;20211;-65
2022/12/20 10:12:52;;;;;;;4.20;2.20;;;8.80;99.90;;;;;;4987757;28;20799;-65
2022/12/20 10:15:21;;;;;;;3.05;2.10;;;8.50;99.90;;;;;;4952364;29;20588;-66
2022/12/20 10:18:11;;;;;;;3.08;2.13;;;8.30;99.90;;;;;;4953138;28;20224;-66
2022/12/20 10:20:49;;;;;;;6.35;2.75;;;8.30;99.90;;;;;;4952211;29;20612;-66
2022/12/20 10:23:24;;;;;;;2.63;2.42;;;8.20;99.90;;;;;;4953105;29;20328;-67
2022/12/20 10:25:52;;;;;;;2.05;1.85;;;8.10;99.90;;;;;;4952194;29;20302;-65
2022/12/20 10:28:24;;;;;;;3.25;2.33;;;8.00;99.90;;;;;;4952481;29;20623;-66
2022/12/20 10:30:51;;;;;;;3.22;2.30;;;8.00;99.90;;;;;;4951867;29;20211;-66
2022/12/20 10:33:27;;;;;;;3.63;2.95;;;7.90;99.90;;;;;;4952827;28;20586;-66
2022/12/20 10:35:55;;;;;;;2.70;2.05;;;7.90;99.90;;;;;;4952085;28;20215;-66
2022/12/20 10:38:22;;;;;;;3.90;2.67;;;7.90;99.90;;;;;;4951866;29;20228;-66
2022/12/20 10:41:00;;;;;;;3.05;2.45;;;7.90;99.90;;;;;;4952013;29;20307;-66
2022/12/20 10:43:28;;;;;;;3.17;2.17;;;7.90;99.90;;;;;;4965909;28;20211;-66
2022/12/20 10:45:57;;;;;;;4.28;2.63;;;7.80;99.90;;;;;;4971778;28;20581;-66
2022/12/20 10:48:30;;;;;;;5.38;2.42;;;7.80;99.90;;;;;;4969610;28;20234;-66
2022/12/20 10:51:01;;;;;;;2.25;2.00;;;7.80;99.90;;;;;;4970632;28;20290;-66
2022/12/20 10:53:28;;;;;;;2.95;2.30;;;7.80;99.90;;;;;;4971591;28;20211;-66
2022/12/20 10:56:12;;;;;;;2.30;2.10;;;7.90;99.90;;;;;;4971466;28;20223;-66
2022/12/20 10:58:39;;;;;;;2.03;1.85;;;7.90;99.90;;;;;;4971825;28;20223;-66
2022/12/20 11:01:14;;;;;;;3.70;2.35;;;7.90;99.90;;;;;;4971306;28;20211;-66
2022/12/20 11:03:51;;;;;;;3.97;3.15;;;7.90;99.90;;;;;;4971542;28;20210;-66
2022/12/20 11:06:21;;;;;;;5.55;2.38;;;7.90;99.90;;;;;;4971528;28;20206;-66
2022/12/20 11:08:48;;;;;;;3.85;2.35;;;7.90;99.90;;;;;;4971402;28;20229;-65
2022/12/20 11:11:18;;;;;;;4.10;2.40;;;8.00;99.90;;;;;;4970873;28;20208;-66
2022/12/20 11:13:46;;;;;;;3.63;2.40;;;8.00;99.90;;;;;;4971440;28;20238;-66
2022/12/20 11:16:26;;;;;;;3.53;2.47;;;8.10;99.90;;;;;;4971590;28;20319;-66
2022/12/20 11:19:02;;;;;;;3.55;2.40;;;8.10;99.90;;;;;;4954011;28;20224;-65
2022/12/20 11:21:38;;;;;;;3.70;2.42;;;8.20;99.90;;;;;;4962805;28;20213;-66
2022/12/20 11:24:12;;;;;;;3.42;2.47;;;8.20;99.90;;;;;;4951617;28;20199;-65
2022/12/20 11:26:58;;;;;;;4.43;3.03;;;8.20;99.90;;;;;;4952128;28;20204;-66
2022/12/20 11:29:43;;;;;;;5.10;2.30;;;8.30;99.90;;;;;;4951813;28;20209;-66
2022/12/20 11:32:26;;;;;;;2.25;2.05;;;8.30;99.90;;;;;;4951898;28;20218;-65
2022/12/20 11:35:09;;;;;;;3.33;2.25;;;8.30;99.90;;;;;;4958500;28;20227;-65
2022/12/20 11:37:46;;;;;;;4.50;2.47;;;8.40;99.90;;;;;;4971201;28;20222;-65
2022/12/20 11:40:26;;;;;;;2.80;2.33;;;8.40;99.90;;;;;;4970884;28;20203;-65
2022/12/20 11:43:03;;;;;;;4.38;2.25;;;8.50;99.90;;;;;;4971077;28;20649;-66
2022/12/20 11:45:36;;;;;;;3.08;2.10;;;8.50;99.90;;;;;;4971531;28;20215;-66
2022/12/20 11:48:33;;;;;;;2.38;2.17;;;8.60;99.90;;;;;;4971393;28;20605;-66
2022/12/20 11:51:03;;;;;;;4.68;2.15;;;8.60;99.90;;;;;;4970357;28;20206;-66
2022/12/20 11:53:37;;;;;;;2.22;2.00;;;8.60;99.90;;;;;;4971007;28;20204;-66
2022/12/20 11:56:10;;;;;;;3.83;2.17;;;8.60;99.90;;;;;;4971333;28;20693;-66
2022/12/20 11:58:47;;;;;;;3.30;2.20;;;8.60;99.90;;;;;;4971442;28;20250;-67
2022/12/20 12:01:17;;;;;;;5.68;1.85;;;8.70;99.90;;;;;;4971047;28;20213;-66
2022/12/20 12:03:59;;;;;;;3.28;2.40;;;8.70;99.90;;;;;;4971020;28;20204;-66
2022/12/20 12:06:28;;;;;;;2.70;2.28;;;8.70;99.90;;;;;;4971461;28;20208;-66
2022/12/20 12:09:11;;;;;;;3.10;2.25;;;8.70;99.90;;;;;;4970879;28;20827;-66
2022/12/20 12:11:41;;;;;;;2.13;1.92;;;8.70;99.90;;;;;;4970739;28;20207;-65
2022/12/20 12:14:16;;;;;;;5.00;2.45;;;8.70;99.90;;;;;;4971364;28;20304;-66
2022/12/20 12:16:47;;;;;;;2.22;2.00;;;8.60;99.90;;;;;;4969993;28;20232;-67
2022/12/20 12:19:15;;;;;;;2.20;2.00;;;8.60;99.90;;;;;;4971421;28;20218;-66
2022/12/20 12:21:47;;;;;;;3.13;2.42;;;8.60;99.90;;;;;;4970503;28;20211;-66
2022/12/20 12:24:23;;;;;;;3.92;2.45;;;8.50;99.90;;;;;;4970535;28;20200;-66
2022/12/20 12:26:50;;;;;;;3.65;2.55;;;8.50;99.90;;;;;;4967801;28;20206;-65
2022/12/20 12:29:19;;;;;;;3.92;2.90;;;8.50;99.90;;;;;;4968521;28;20216;-66
2022/12/20 12:31:51;;;;;;;2.65;2.13;;;8.50;99.90;;;;;;4957394;28;20219;-66
2022/12/20 12:34:32;;;;;;;3.42;2.30;;;8.40;99.90;;;;;;4957744;28;20196;-66
2022/12/20 12:37:41;;;;;;;4.60;2.28;;;8.40;99.90;;;;;;4961393;28;20211;-66
2022/12/20 12:40:44;;;;;;;2.55;2.35;;;8.30;99.90;;;;;;4887059;28;20218;-65
2022/12/20 12:43:41;;;;;;;2.75;2.55;;;8.40;99.90;;;;;;4943369;28;20199;-66
2022/12/20 12:46:13;;;;;;;4.03;2.45;;;8.30;99.90;;;;;;4964370;28;20291;-66
2022/12/20 12:48:43;;;;;;;3.17;2.22;;;8.40;99.90;;;;;;4962225;28;20696;-67
2022/12/20 12:51:11;;;;;;;2.72;2.50;;;8.40;99.90;;;;;;4962721;28;20207;-66
2022/12/20 12:53:44;;;;;;;2.75;2.45;;;8.50;99.90;;;;;;4964117;28;20431;-66
2022/12/20 12:56:41;;;;;;;2.00;1.80;;;8.60;99.90;;;;;;4964794;28;20617;-65
2022/12/20 12:59:23;;;;;;;3.05;2.40;;;8.70;99.90;;;;;;4920982;28;20228;-66
2022/12/20 13:01:52;;;;;;;2.53;2.20;;;8.70;99.90;;;;;;4964080;28;20198;-66
2022/12/20 13:04:28;;;;;;;2.90;2.40;;;8.70;99.90;;;;;;4963532;28;20231;-66
2022/12/20 13:06:58;;;;;;;2.30;2.10;;;8.70;99.90;;;;;;4964419;28;20638;-66
2022/12/20 13:09:42;;;;;;;2.55;2.08;;;8.70;99.90;;;;;;4963757;28;20230;-64
2022/12/20 13:12:56;;;;;;;3.40;2.20;;;8.70;99.90;;;;;;4964228;28;20202;-67
2022/12/20 13:15:49;;;;;;;3.08;2.45;;;8.70;99.90;;;;;;4887125;29;20226;-67
2022/12/20 13:18:26;;;;;;;2.95;2.30;;;8.70;99.90;;;;;;4962823;28;20705;-67
2022/12/20 13:21:32;;;;;;;2.92;1.80;;;8.70;99.90;;;;;;4961781;28;20559;-67
2022/12/20 13:24:40;;;;;;;2.70;2.10;;;8.70;99.90;;;;;;4961538;28;20264;-67